sensor_id;sensor_type;location;lat;lon;timestamp;P1;durP1;ratioP1;P2;durP2;ratioP2
56233;SDS011;42141;53.240;6.580;2023-04-03T00:01:29;3.13;;;0.63;;
56233;SDS011;42141;53.240;6.580;2023-04-03T00:03:55;1.77;;;0.68;;
56233;SDS011;42141;53.240;6.580;2023-04-03T00:06:22;2.85;;;0.55;;
56233;SDS011;42141;53.240;6.580;2023-04-03T00:08:48;1.02;;;0.43;;
56233;SDS011;42141;53.240;6.580;2023-04-03T00:11:15;4.03;;;0.63;;
56233;SDS011;42141;53.240;6.580;2023-04-03T00:13:41;1.35;;;0.52;;
56233;SDS011;42141;53.240;6.580;2023-04-03T00:16:07;4.03;;;0.73;;
56233;SDS011;42141;53.240;6.580;2023-04-03T00:18:35;1.35;;;0.50;;
56233;SDS011;42141;53.240;6.580;2023-04-03T00:21:02;6.63;;;0.70;;
56233;SDS011;42141;53.240;6.580;2023-04-03T00:23:28;2.42;;;0.57;;
56233;SDS011;42141;53.240;6.580;2023-04-03T00:25:53;2.28;;;0.50;;
56233;SDS011;42141;53.240;6.580;2023-04-03T00:28:20;1.85;;;0.40;;
56233;SDS011;42141;53.240;6.580;2023-04-03T00:30:46;2.65;;;0.50;;
56233;SDS011;42141;53.240;6.580;2023-04-03T00:33:13;2.13;;;0.57;;
56233;SDS011;42141;53.240;6.580;2023-04-03T00:35:39;3.58;;;0.80;;
56233;SDS011;42141;53.240;6.580;2023-04-03T00:38:05;2.92;;;0.80;;
56233;SDS011;42141;53.240;6.580;2023-04-03T00:40:38;4.18;;;0.57;;
56233;SDS011;42141;53.240;6.580;2023-04-03T00:43:20;3.10;;;0.70;;
56233;SDS011;42141;53.240;6.580;2023-04-03T00:45:51;4.95;;;0.50;;
56233;SDS011;42141;53.240;6.580;2023-04-03T00:48:24;2.30;;;0.85;;
56233;SDS011;42141;53.240;6.580;2023-04-03T00:50:53;2.35;;;0.52;;
56233;SDS011;42141;53.240;6.580;2023-04-03T00:53:22;3.40;;;0.60;;
56233;SDS011;42141;53.240;6.580;2023-04-03T00:55:50;6.18;;;1.73;;
56233;SDS011;42141;53.240;6.580;2023-04-03T00:58:19;3.03;;;0.70;;
56233;SDS011;42141;53.240;6.580;2023-04-03T01:00:48;0.73;;;0.45;;
56233;SDS011;42141;53.240;6.580;2023-04-03T01:03:21;2.92;;;0.60;;
56233;SDS011;42141;53.240;6.580;2023-04-03T01:05:47;4.55;;;2.72;;
56233;SDS011;42141;53.240;6.580;2023-04-03T01:08:13;3.15;;;0.60;;
56233;SDS011;42141;53.240;6.580;2023-04-03T01:10:38;3.78;;;1.00;;
56233;SDS011;42141;53.240;6.580;2023-04-03T01:13:17;4.70;;;0.82;;
56233;SDS011;42141;53.240;6.580;2023-04-03T01:15:48;3.65;;;0.73;;
56233;SDS011;42141;53.240;6.580;2023-04-03T01:18:14;5.05;;;0.88;;
56233;SDS011;42141;53.240;6.580;2023-04-03T01:20:48;3.25;;;0.77;;
56233;SDS011;42141;53.240;6.580;2023-04-03T01:23:32;2.05;;;0.80;;
56233;SDS011;42141;53.240;6.580;2023-04-03T01:26:16;3.17;;;0.93;;
56233;SDS011;42141;53.240;6.580;2023-04-03T01:28:41;4.50;;;1.13;;
56233;SDS011;42141;53.240;6.580;2023-04-03T01:31:27;5.38;;;1.30;;
56233;SDS011;42141;53.240;6.580;2023-04-03T01:34:00;9.47;;;5.50;;
56233;SDS011;42141;53.240;6.580;2023-04-03T01:36:28;6.13;;;1.13;;
56233;SDS011;42141;53.240;6.580;2023-04-03T01:38:55;5.05;;;0.70;;
56233;SDS011;42141;53.240;6.580;2023-04-03T01:41:22;4.20;;;0.90;;
56233;SDS011;42141;53.240;6.580;2023-04-03T01:43:48;3.55;;;0.82;;
56233;SDS011;42141;53.240;6.580;2023-04-03T01:46:15;6.57;;;1.33;;
56233;SDS011;42141;53.240;6.580;2023-04-03T01:48:41;5.35;;;1.00;;
56233;SDS011;42141;53.240;6.580;2023-04-03T01:51:07;2.42;;;0.77;;
56233;SDS011;42141;53.240;6.580;2023-04-03T01:53:33;3.83;;;1.00;;
56233;SDS011;42141;53.240;6.580;2023-04-03T01:55:59;6.55;;;1.02;;
56233;SDS011;42141;53.240;6.580;2023-04-03T01:58:25;7.72;;;1.30;;
56233;SDS011;42141;53.240;6.580;2023-04-03T02:00:51;7.00;;;1.15;;
56233;SDS011;42141;53.240;6.580;2023-04-03T02:03:17;1.35;;;0.65;;
56233;SDS011;42141;53.240;6.580;2023-04-03T02:05:43;4.05;;;0.93;;
56233;SDS011;42141;53.240;6.580;2023-04-03T02:08:10;4.20;;;1.33;;
56233;SDS011;42141;53.240;6.580;2023-04-03T02:10:36;10.30;;;1.00;;
56233;SDS011;42141;53.240;6.580;2023-04-03T02:13:02;4.03;;;0.93;;
56233;SDS011;42141;53.240;6.580;2023-04-03T02:15:27;4.18;;;0.90;;
56233;SDS011;42141;53.240;6.580;2023-04-03T02:17:53;3.60;;;1.25;;
56233;SDS011;42141;53.240;6.580;2023-04-03T02:20:19;2.63;;;0.77;;
56233;SDS011;42141;53.240;6.580;2023-04-03T02:22:45;5.10;;;1.65;;
56233;SDS011;42141;53.240;6.580;2023-04-03T02:25:11;5.80;;;0.80;;
56233;SDS011;42141;53.240;6.580;2023-04-03T02:27:38;5.78;;;1.10;;
56233;SDS011;42141;53.240;6.580;2023-04-03T02:30:04;5.35;;;1.08;;
56233;SDS011;42141;53.240;6.580;2023-04-03T02:32:31;5.13;;;1.35;;
56233;SDS011;42141;53.240;6.580;2023-04-03T02:34:57;4.57;;;0.90;;
56233;SDS011;42141;53.240;6.580;2023-04-03T02:37:23;2.45;;;0.93;;
56233;SDS011;42141;53.240;6.580;2023-04-03T02:39:49;4.68;;;0.77;;
56233;SDS011;42141;53.240;6.580;2023-04-03T02:42:15;6.20;;;2.17;;
56233;SDS011;42141;53.240;6.580;2023-04-03T02:44:41;8.70;;;1.50;;
56233;SDS011;42141;53.240;6.580;2023-04-03T02:47:07;3.25;;;0.82;;
56233;SDS011;42141;53.240;6.580;2023-04-03T02:49:32;4.65;;;0.98;;
56233;SDS011;42141;53.240;6.580;2023-04-03T02:51:58;6.53;;;1.27;;
56233;SDS011;42141;53.240;6.580;2023-04-03T02:54:24;8.93;;;1.50;;
56233;SDS011;42141;53.240;6.580;2023-04-03T02:56:52;3.90;;;1.00;;
56233;SDS011;42141;53.240;6.580;2023-04-03T02:59:18;6.15;;;1.17;;
56233;SDS011;42141;53.240;6.580;2023-04-03T03:01:44;5.05;;;0.82;;
56233;SDS011;42141;53.240;6.580;2023-04-03T03:04:10;4.72;;;1.30;;
56233;SDS011;42141;53.240;6.580;2023-04-03T03:06:36;6.78;;;1.23;;
56233;SDS011;42141;53.240;6.580;2023-04-03T03:09:02;4.90;;;1.15;;
56233;SDS011;42141;53.240;6.580;2023-04-03T03:11:28;2.33;;;0.95;;
56233;SDS011;42141;53.240;6.580;2023-04-03T03:13:55;4.65;;;1.20;;
56233;SDS011;42141;53.240;6.580;2023-04-03T03:16:21;4.85;;;1.08;;
56233;SDS011;42141;53.240;6.580;2023-04-03T03:18:46;2.03;;;0.75;;
56233;SDS011;42141;53.240;6.580;2023-04-03T03:21:12;6.45;;;1.05;;
56233;SDS011;42141;53.240;6.580;2023-04-03T03:23:38;5.20;;;1.27;;
56233;SDS011;42141;53.240;6.580;2023-04-03T03:26:06;6.75;;;1.30;;
56233;SDS011;42141;53.240;6.580;2023-04-03T03:28:34;2.50;;;0.82;;
56233;SDS011;42141;53.240;6.580;2023-04-03T03:31:01;4.25;;;1.23;;
56233;SDS011;42141;53.240;6.580;2023-04-03T03:33:27;4.72;;;1.25;;
56233;SDS011;42141;53.240;6.580;2023-04-03T03:35:53;2.83;;;1.10;;
56233;SDS011;42141;53.240;6.580;2023-04-03T03:38:19;4.15;;;0.85;;
56233;SDS011;42141;53.240;6.580;2023-04-03T03:40:48;4.95;;;1.40;;
56233;SDS011;42141;53.240;6.580;2023-04-03T03:43:15;2.53;;;1.27;;
56233;SDS011;42141;53.240;6.580;2023-04-03T03:45:41;6.55;;;1.00;;
56233;SDS011;42141;53.240;6.580;2023-04-03T03:48:07;5.57;;;1.20;;
56233;SDS011;42141;53.240;6.580;2023-04-03T03:50:33;5.18;;;1.00;;
56233;SDS011;42141;53.240;6.580;2023-04-03T03:52:59;6.25;;;1.45;;
56233;SDS011;42141;53.240;6.580;2023-04-03T03:55:25;6.47;;;1.90;;
56233;SDS011;42141;53.240;6.580;2023-04-03T03:57:51;5.53;;;1.35;;
56233;SDS011;42141;53.240;6.580;2023-04-03T04:00:16;5.72;;;1.17;;
56233;SDS011;42141;53.240;6.580;2023-04-03T04:02:42;2.05;;;1.00;;
56233;SDS011;42141;53.240;6.580;2023-04-03T04:05:09;9.00;;;1.63;;
56233;SDS011;42141;53.240;6.580;2023-04-03T04:07:34;9.00;;;2.35;;
56233;SDS011;42141;53.240;6.580;2023-04-03T04:10:00;7.82;;;1.40;;
56233;SDS011;42141;53.240;6.580;2023-04-03T04:12:26;7.60;;;2.45;;
56233;SDS011;42141;53.240;6.580;2023-04-03T04:14:52;6.88;;;1.52;;
56233;SDS011;42141;53.240;6.580;2023-04-03T04:17:17;4.97;;;1.75;;
56233;SDS011;42141;53.240;6.580;2023-04-03T04:19:43;3.83;;;1.77;;
56233;SDS011;42141;53.240;6.580;2023-04-03T04:22:09;4.88;;;1.27;;
56233;SDS011;42141;53.240;6.580;2023-04-03T04:24:35;3.65;;;1.33;;
56233;SDS011;42141;53.240;6.580;2023-04-03T04:27:01;7.95;;;1.35;;
56233;SDS011;42141;53.240;6.580;2023-04-03T04:29:26;6.78;;;1.13;;
56233;SDS011;42141;53.240;6.580;2023-04-03T04:31:52;3.05;;;1.50;;
56233;SDS011;42141;53.240;6.580;2023-04-03T04:34:18;6.03;;;1.38;;
56233;SDS011;42141;53.240;6.580;2023-04-03T04:36:43;9.57;;;1.65;;
56233;SDS011;42141;53.240;6.580;2023-04-03T04:39:09;5.20;;;1.20;;
56233;SDS011;42141;53.240;6.580;2023-04-03T04:41:35;6.28;;;1.25;;
56233;SDS011;42141;53.240;6.580;2023-04-03T04:44:00;8.25;;;1.80;;
56233;SDS011;42141;53.240;6.580;2023-04-03T04:46:26;8.57;;;1.80;;
56233;SDS011;42141;53.240;6.580;2023-04-03T04:48:52;8.50;;;1.73;;
56233;SDS011;42141;53.240;6.580;2023-04-03T04:51:18;10.93;;;2.15;;
56233;SDS011;42141;53.240;6.580;2023-04-03T04:53:43;3.83;;;1.48;;
56233;SDS011;42141;53.240;6.580;2023-04-03T04:56:10;2.53;;;1.63;;
56233;SDS011;42141;53.240;6.580;2023-04-03T04:58:36;7.60;;;2.15;;
56233;SDS011;42141;53.240;6.580;2023-04-03T05:01:06;4.25;;;1.40;;
56233;SDS011;42141;53.240;6.580;2023-04-03T05:03:33;4.95;;;1.58;;
56233;SDS011;42141;53.240;6.580;2023-04-03T05:05:59;5.63;;;1.60;;
56233;SDS011;42141;53.240;6.580;2023-04-03T05:08:25;4.28;;;1.92;;
56233;SDS011;42141;53.240;6.580;2023-04-03T05:10:51;7.35;;;2.00;;
56233;SDS011;42141;53.240;6.580;2023-04-03T05:13:18;8.02;;;2.20;;
56233;SDS011;42141;53.240;6.580;2023-04-03T05:15:44;8.27;;;2.55;;
56233;SDS011;42141;53.240;6.580;2023-04-03T05:18:10;8.07;;;2.60;;
56233;SDS011;42141;53.240;6.580;2023-04-03T05:20:36;4.82;;;2.40;;
56233;SDS011;42141;53.240;6.580;2023-04-03T05:23:02;8.70;;;2.40;;
56233;SDS011;42141;53.240;6.580;2023-04-03T05:25:28;6.18;;;2.03;;
56233;SDS011;42141;53.240;6.580;2023-04-03T05:27:54;4.25;;;2.00;;
56233;SDS011;42141;53.240;6.580;2023-04-03T05:30:20;6.05;;;2.55;;
56233;SDS011;42141;53.240;6.580;2023-04-03T05:32:46;5.47;;;2.45;;
56233;SDS011;42141;53.240;6.580;2023-04-03T05:35:11;6.03;;;2.30;;
56233;SDS011;42141;53.240;6.580;2023-04-03T05:37:37;6.72;;;2.67;;
56233;SDS011;42141;53.240;6.580;2023-04-03T05:40:04;12.57;;;4.10;;
56233;SDS011;42141;53.240;6.580;2023-04-03T05:42:30;9.38;;;3.15;;
56233;SDS011;42141;53.240;6.580;2023-04-03T05:44:56;9.15;;;2.78;;
56233;SDS011;42141;53.240;6.580;2023-04-03T05:47:22;8.52;;;2.30;;
56233;SDS011;42141;53.240;6.580;2023-04-03T05:49:48;15.18;;;2.65;;
56233;SDS011;42141;53.240;6.580;2023-04-03T05:54:51;9.15;;;2.28;;
56233;SDS011;42141;53.240;6.580;2023-04-03T05:57:17;8.85;;;2.10;;
56233;SDS011;42141;53.240;6.580;2023-04-03T05:59:44;9.57;;;2.17;;
56233;SDS011;42141;53.240;6.580;2023-04-03T06:02:15;11.95;;;2.05;;
56233;SDS011;42141;53.240;6.580;2023-04-03T06:04:43;7.68;;;1.95;;
56233;SDS011;42141;53.240;6.580;2023-04-03T06:07:10;17.10;;;2.08;;
56233;SDS011;42141;53.240;6.580;2023-04-03T06:09:41;8.38;;;2.05;;
56233;SDS011;42141;53.240;6.580;2023-04-03T06:12:08;6.97;;;2.05;;
56233;SDS011;42141;53.240;6.580;2023-04-03T06:14:34;7.30;;;2.00;;
56233;SDS011;42141;53.240;6.580;2023-04-03T06:17:00;4.95;;;1.60;;
56233;SDS011;42141;53.240;6.580;2023-04-03T06:19:26;7.35;;;1.92;;
56233;SDS011;42141;53.240;6.580;2023-04-03T06:21:53;4.50;;;1.75;;
56233;SDS011;42141;53.240;6.580;2023-04-03T06:24:18;10.05;;;2.17;;
56233;SDS011;42141;53.240;6.580;2023-04-03T06:26:46;9.90;;;2.33;;
56233;SDS011;42141;53.240;6.580;2023-04-03T06:29:13;9.82;;;2.40;;
56233;SDS011;42141;53.240;6.580;2023-04-03T06:31:39;6.93;;;2.20;;
56233;SDS011;42141;53.240;6.580;2023-04-03T06:34:05;4.70;;;1.50;;
56233;SDS011;42141;53.240;6.580;2023-04-03T06:36:32;4.90;;;1.73;;
56233;SDS011;42141;53.240;6.580;2023-04-03T06:38:58;7.93;;;2.35;;
56233;SDS011;42141;53.240;6.580;2023-04-03T06:41:24;5.65;;;1.83;;
56233;SDS011;42141;53.240;6.580;2023-04-03T06:43:51;4.40;;;1.95;;
56233;SDS011;42141;53.240;6.580;2023-04-03T06:46:18;11.38;;;2.00;;
56233;SDS011;42141;53.240;6.580;2023-04-03T06:48:46;10.13;;;3.05;;
56233;SDS011;42141;53.240;6.580;2023-04-03T06:51:17;6.63;;;1.80;;
56233;SDS011;42141;53.240;6.580;2023-04-03T06:53:43;6.47;;;1.52;;
56233;SDS011;42141;53.240;6.580;2023-04-03T06:56:09;9.00;;;2.25;;
56233;SDS011;42141;53.240;6.580;2023-04-03T06:58:35;6.72;;;1.95;;
56233;SDS011;42141;53.240;6.580;2023-04-03T07:01:01;6.13;;;1.70;;
56233;SDS011;42141;53.240;6.580;2023-04-03T07:03:26;10.95;;;3.80;;
56233;SDS011;42141;53.240;6.580;2023-04-03T07:05:52;4.00;;;2.38;;
56233;SDS011;42141;53.240;6.580;2023-04-03T07:08:18;3.95;;;1.70;;
56233;SDS011;42141;53.240;6.580;2023-04-03T07:10:44;4.82;;;1.92;;
56233;SDS011;42141;53.240;6.580;2023-04-03T07:13:09;6.60;;;1.67;;
56233;SDS011;42141;53.240;6.580;2023-04-03T07:15:35;5.97;;;2.17;;
56233;SDS011;42141;53.240;6.580;2023-04-03T07:18:02;8.60;;;3.42;;
56233;SDS011;42141;53.240;6.580;2023-04-03T07:20:27;9.18;;;1.92;;
56233;SDS011;42141;53.240;6.580;2023-04-03T07:22:53;7.00;;;2.08;;
56233;SDS011;42141;53.240;6.580;2023-04-03T07:25:19;8.25;;;1.85;;
56233;SDS011;42141;53.240;6.580;2023-04-03T07:27:45;10.27;;;2.60;;
56233;SDS011;42141;53.240;6.580;2023-04-03T07:30:10;11.35;;;2.00;;
56233;SDS011;42141;53.240;6.580;2023-04-03T07:32:39;5.65;;;1.52;;
56233;SDS011;42141;53.240;6.580;2023-04-03T07:35:04;9.90;;;1.88;;
56233;SDS011;42141;53.240;6.580;2023-04-03T07:37:30;5.10;;;1.63;;
56233;SDS011;42141;53.240;6.580;2023-04-03T07:39:57;7.88;;;1.58;;
56233;SDS011;42141;53.240;6.580;2023-04-03T07:42:24;4.60;;;1.70;;
56233;SDS011;42141;53.240;6.580;2023-04-03T07:44:52;7.75;;;1.60;;
56233;SDS011;42141;53.240;6.580;2023-04-03T07:47:19;4.20;;;1.52;;
56233;SDS011;42141;53.240;6.580;2023-04-03T07:49:46;5.82;;;1.25;;
56233;SDS011;42141;53.240;6.580;2023-04-03T07:52:12;9.20;;;1.80;;
56233;SDS011;42141;53.240;6.580;2023-04-03T07:54:39;4.95;;;1.58;;
56233;SDS011;42141;53.240;6.580;2023-04-03T07:57:05;6.82;;;1.85;;
56233;SDS011;42141;53.240;6.580;2023-04-03T07:59:31;13.65;;;1.70;;
56233;SDS011;42141;53.240;6.580;2023-04-03T08:01:57;9.45;;;1.45;;
56233;SDS011;42141;53.240;6.580;2023-04-03T08:04:23;3.47;;;1.10;;
56233;SDS011;42141;53.240;6.580;2023-04-03T08:06:49;5.05;;;1.50;;
56233;SDS011;42141;53.240;6.580;2023-04-03T08:09:15;10.77;;;1.88;;
56233;SDS011;42141;53.240;6.580;2023-04-03T08:11:41;4.20;;;2.08;;
56233;SDS011;42141;53.240;6.580;2023-04-03T08:14:07;3.83;;;2.28;;
56233;SDS011;42141;53.240;6.580;2023-04-03T08:16:33;3.28;;;1.17;;
56233;SDS011;42141;53.240;6.580;2023-04-03T08:18:58;7.95;;;1.48;;
56233;SDS011;42141;53.240;6.580;2023-04-03T08:21:24;3.85;;;1.10;;
56233;SDS011;42141;53.240;6.580;2023-04-03T08:23:51;9.68;;;1.55;;
56233;SDS011;42141;53.240;6.580;2023-04-03T08:26:17;7.55;;;0.95;;
56233;SDS011;42141;53.240;6.580;2023-04-03T08:28:45;6.65;;;1.63;;
56233;SDS011;42141;53.240;6.580;2023-04-03T08:31:13;4.53;;;1.70;;
56233;SDS011;42141;53.240;6.580;2023-04-03T08:33:42;5.28;;;1.30;;
56233;SDS011;42141;53.240;6.580;2023-04-03T08:36:14;7.30;;;2.30;;
56233;SDS011;42141;53.240;6.580;2023-04-03T08:38:48;8.18;;;1.35;;
56233;SDS011;42141;53.240;6.580;2023-04-03T08:41:16;4.18;;;1.23;;
56233;SDS011;42141;53.240;6.580;2023-04-03T08:44:13;2.95;;;0.90;;
56233;SDS011;42141;53.240;6.580;2023-04-03T08:52:13;8.02;;;1.67;;
56233;SDS011;42141;53.240;6.580;2023-04-03T08:54:52;7.85;;;2.97;;
56233;SDS011;42141;53.240;6.580;2023-04-03T08:57:31;6.22;;;2.10;;
56233;SDS011;42141;53.240;6.580;2023-04-03T09:00:06;4.97;;;1.20;;
56233;SDS011;42141;53.240;6.580;2023-04-03T09:02:52;2.30;;;0.68;;
56233;SDS011;42141;53.240;6.580;2023-04-03T09:08:21;5.57;;;1.10;;
56233;SDS011;42141;53.240;6.580;2023-04-03T09:19:49;4.22;;;0.77;;
56233;SDS011;42141;53.240;6.580;2023-04-03T09:24:47;6.57;;;1.20;;
56233;SDS011;42141;53.240;6.580;2023-04-03T09:27:23;3.72;;;0.88;;
56233;SDS011;42141;53.240;6.580;2023-04-03T09:29:49;3.17;;;0.90;;
56233;SDS011;42141;53.240;6.580;2023-04-03T09:32:26;2.80;;;0.82;;
56233;SDS011;42141;53.240;6.580;2023-04-03T09:34:55;4.60;;;0.85;;
56233;SDS011;42141;53.240;6.580;2023-04-03T09:37:34;6.85;;;0.93;;
56233;SDS011;42141;53.240;6.580;2023-04-03T09:42:55;2.95;;;0.65;;
56233;SDS011;42141;53.240;6.580;2023-04-03T09:45:30;3.13;;;0.60;;
56233;SDS011;42141;53.240;6.580;2023-04-03T09:56:04;3.17;;;0.70;;
56233;SDS011;42141;53.240;6.580;2023-04-03T09:58:51;3.70;;;0.90;;
56233;SDS011;42141;53.240;6.580;2023-04-03T10:01:30;2.40;;;0.90;;
56233;SDS011;42141;53.240;6.580;2023-04-03T10:06:34;3.97;;;0.45;;
56233;SDS011;42141;53.240;6.580;2023-04-03T10:09:04;1.02;;;0.60;;
56233;SDS011;42141;53.240;6.580;2023-04-03T10:11:38;4.00;;;0.63;;
56233;SDS011;42141;53.240;6.580;2023-04-03T10:14:22;1.77;;;0.52;;
56233;SDS011;42141;53.240;6.580;2023-04-03T10:16:53;6.55;;;0.90;;
56233;SDS011;42141;53.240;6.580;2023-04-03T10:19:47;2.78;;;0.80;;
56233;SDS011;42141;53.240;6.580;2023-04-03T10:28:09;2.92;;;0.73;;
56233;SDS011;42141;53.240;6.580;2023-04-03T10:47:08;2.33;;;0.47;;
56233;SDS011;42141;53.240;6.580;2023-04-03T10:50:08;2.00;;;0.73;;
56233;SDS011;42141;53.240;6.580;2023-04-03T10:52:54;1.45;;;0.60;;
56233;SDS011;42141;53.240;6.580;2023-04-03T10:57:52;1.77;;;0.57;;
56233;SDS011;42141;53.240;6.580;2023-04-03T11:00:22;1.85;;;0.40;;
56233;SDS011;42141;53.240;6.580;2023-04-03T11:03:15;1.27;;;0.38;;
56233;SDS011;42141;53.240;6.580;2023-04-03T11:05:53;1.30;;;0.45;;
56233;SDS011;42141;53.240;6.580;2023-04-03T11:08:27;2.22;;;0.47;;
56233;SDS011;42141;53.240;6.580;2023-04-03T11:11:00;3.15;;;0.60;;
56233;SDS011;42141;53.240;6.580;2023-04-03T11:13:46;3.03;;;0.68;;
56233;SDS011;42141;53.240;6.580;2023-04-03T11:16:24;3.00;;;0.65;;
56233;SDS011;42141;53.240;6.580;2023-04-03T11:19:11;1.95;;;0.43;;
56233;SDS011;42141;53.240;6.580;2023-04-03T11:22:03;4.78;;;0.52;;
56233;SDS011;42141;53.240;6.580;2023-04-03T11:24:32;1.75;;;0.30;;
56233;SDS011;42141;53.240;6.580;2023-04-03T11:27:01;0.65;;;0.30;;
56233;SDS011;42141;53.240;6.580;2023-04-03T11:29:36;6.32;;;0.75;;
56233;SDS011;42141;53.240;6.580;2023-04-03T11:42:42;4.43;;;0.70;;
56233;SDS011;42141;53.240;6.580;2023-04-03T12:05:53;5.63;;;0.73;;
56233;SDS011;42141;53.240;6.580;2023-04-03T12:16:06;1.63;;;0.40;;
56233;SDS011;42141;53.240;6.580;2023-04-03T12:19:01;4.25;;;0.43;;
56233;SDS011;42141;53.240;6.580;2023-04-03T12:27:28;1.73;;;0.45;;
56233;SDS011;42141;53.240;6.580;2023-04-03T12:32:44;2.13;;;0.43;;
56233;SDS011;42141;53.240;6.580;2023-04-03T12:46:23;2.13;;;0.63;;
56233;SDS011;42141;53.240;6.580;2023-04-03T12:48:51;3.05;;;0.45;;
56233;SDS011;42141;53.240;6.580;2023-04-03T12:51:40;3.25;;;0.50;;
56233;SDS011;42141;53.240;6.580;2023-04-03T12:57:16;1.30;;;0.30;;
56233;SDS011;42141;53.240;6.580;2023-04-03T12:59:47;2.78;;;0.30;;
56233;SDS011;42141;53.240;6.580;2023-04-03T13:02:17;2.88;;;0.40;;
56233;SDS011;42141;53.240;6.580;2023-04-03T13:04:45;4.88;;;0.63;;
56233;SDS011;42141;53.240;6.580;2023-04-03T13:12:35;3.92;;;0.70;;
56233;SDS011;42141;53.240;6.580;2023-04-03T13:15:20;1.02;;;0.30;;
56233;SDS011;42141;53.240;6.580;2023-04-03T13:17:51;4.80;;;0.82;;
56233;SDS011;42141;53.240;6.580;2023-04-03T13:20:25;1.15;;;0.50;;
56233;SDS011;42141;53.240;6.580;2023-04-03T13:22:57;0.60;;;0.30;;
56233;SDS011;42141;53.240;6.580;2023-04-03T13:25:28;8.02;;;0.70;;
56233;SDS011;42141;53.240;6.580;2023-04-03T13:27:57;2.45;;;0.52;;
56233;SDS011;42141;53.240;6.580;2023-04-03T13:30:25;1.90;;;0.63;;
56233;SDS011;42141;53.240;6.580;2023-04-03T13:32:58;3.17;;;0.70;;
56233;SDS011;42141;53.240;6.580;2023-04-03T13:37:55;1.02;;;0.32;;
56233;SDS011;42141;53.240;6.580;2023-04-03T13:40:23;4.03;;;0.55;;
56233;SDS011;42141;53.240;6.580;2023-04-03T13:42:58;2.70;;;0.60;;
56233;SDS011;42141;53.240;6.580;2023-04-03T13:45:27;5.97;;;0.93;;
56233;SDS011;42141;53.240;6.580;2023-04-03T13:48:40;5.28;;;0.80;;
56233;SDS011;42141;53.240;6.580;2023-04-03T13:53:17;2.15;;;0.43;;
56233;SDS011;42141;53.240;6.580;2023-04-03T13:56:00;2.92;;;0.80;;
56233;SDS011;42141;53.240;6.580;2023-04-03T13:58:34;3.50;;;0.50;;
56233;SDS011;42141;53.240;6.580;2023-04-03T14:03:45;2.45;;;0.50;;
56233;SDS011;42141;53.240;6.580;2023-04-03T14:06:16;6.13;;;0.95;;
56233;SDS011;42141;53.240;6.580;2023-04-03T14:08:42;3.92;;;0.60;;
56233;SDS011;42141;53.240;6.580;2023-04-03T14:11:13;1.38;;;0.50;;
56233;SDS011;42141;53.240;6.580;2023-04-03T14:13:41;1.15;;;0.50;;
56233;SDS011;42141;53.240;6.580;2023-04-03T14:16:11;2.80;;;0.60;;
56233;SDS011;42141;53.240;6.580;2023-04-03T14:18:38;3.45;;;0.85;;
56233;SDS011;42141;53.240;6.580;2023-04-03T14:21:04;3.20;;;0.77;;
56233;SDS011;42141;53.240;6.580;2023-04-03T14:23:30;1.10;;;0.43;;
56233;SDS011;42141;53.240;6.580;2023-04-03T14:25:56;3.38;;;0.55;;
56233;SDS011;42141;53.240;6.580;2023-04-03T14:28:22;3.47;;;0.88;;
56233;SDS011;42141;53.240;6.580;2023-04-03T14:30:51;1.50;;;0.40;;
56233;SDS011;42141;53.240;6.580;2023-04-03T14:33:18;2.67;;;0.93;;
56233;SDS011;42141;53.240;6.580;2023-04-03T14:35:46;2.05;;;0.52;;
56233;SDS011;42141;53.240;6.580;2023-04-03T14:38:26;7.35;;;1.35;;
56233;SDS011;42141;53.240;6.580;2023-04-03T14:40:55;3.25;;;0.68;;
56233;SDS011;42141;53.240;6.580;2023-04-03T14:43:21;5.80;;;0.60;;
56233;SDS011;42141;53.240;6.580;2023-04-03T14:45:47;4.90;;;0.90;;
56233;SDS011;42141;53.240;6.580;2023-04-03T14:48:24;2.88;;;0.60;;
56233;SDS011;42141;53.240;6.580;2023-04-03T14:50:52;2.15;;;0.52;;
56233;SDS011;42141;53.240;6.580;2023-04-03T14:53:18;3.10;;;0.70;;
56233;SDS011;42141;53.240;6.580;2023-04-03T14:55:48;1.58;;;0.52;;
56233;SDS011;42141;53.240;6.580;2023-04-03T14:58:15;1.60;;;0.60;;
56233;SDS011;42141;53.240;6.580;2023-04-03T15:00:42;2.15;;;0.60;;
56233;SDS011;42141;53.240;6.580;2023-04-03T15:03:14;1.30;;;0.55;;
56233;SDS011;42141;53.240;6.580;2023-04-03T15:05:41;0.95;;;0.45;;
56233;SDS011;42141;53.240;6.580;2023-04-03T15:08:13;5.05;;;1.02;;
56233;SDS011;42141;53.240;6.580;2023-04-03T15:10:46;5.43;;;0.80;;
56233;SDS011;42141;53.240;6.580;2023-04-03T15:13:12;4.13;;;1.48;;
56233;SDS011;42141;53.240;6.580;2023-04-03T15:15:39;2.17;;;0.57;;
56233;SDS011;42141;53.240;6.580;2023-04-03T15:18:05;2.88;;;0.77;;
56233;SDS011;42141;53.240;6.580;2023-04-03T15:20:31;1.42;;;0.63;;
56233;SDS011;42141;53.240;6.580;2023-04-03T15:22:58;3.42;;;0.70;;
56233;SDS011;42141;53.240;6.580;2023-04-03T15:25:27;2.00;;;0.40;;
56233;SDS011;42141;53.240;6.580;2023-04-03T15:27:54;5.32;;;0.98;;
56233;SDS011;42141;53.240;6.580;2023-04-03T15:30:21;2.75;;;0.73;;
56233;SDS011;42141;53.240;6.580;2023-04-03T15:32:47;7.47;;;1.00;;
56233;SDS011;42141;53.240;6.580;2023-04-03T15:35:13;2.90;;;0.50;;
56233;SDS011;42141;53.240;6.580;2023-04-03T15:37:40;1.25;;;0.30;;
56233;SDS011;42141;53.240;6.580;2023-04-03T15:40:06;1.58;;;0.32;;
56233;SDS011;42141;53.240;6.580;2023-04-03T15:42:32;3.72;;;0.50;;
56233;SDS011;42141;53.240;6.580;2023-04-03T15:44:58;0.57;;;0.40;;
56233;SDS011;42141;53.240;6.580;2023-04-03T15:47:24;2.65;;;0.47;;
56233;SDS011;42141;53.240;6.580;2023-04-03T15:49:51;3.40;;;0.70;;
56233;SDS011;42141;53.240;6.580;2023-04-03T15:52:21;2.17;;;0.50;;
56233;SDS011;42141;53.240;6.580;2023-04-03T15:54:47;2.63;;;0.60;;
56233;SDS011;42141;53.240;6.580;2023-04-03T15:57:12;1.70;;;0.40;;
56233;SDS011;42141;53.240;6.580;2023-04-03T15:59:38;10.15;;;4.07;;
56233;SDS011;42141;53.240;6.580;2023-04-03T16:02:04;2.92;;;0.75;;
56233;SDS011;42141;53.240;6.580;2023-04-03T16:04:33;4.25;;;0.50;;
56233;SDS011;42141;53.240;6.580;2023-04-03T16:07:02;1.33;;;0.50;;
56233;SDS011;42141;53.240;6.580;2023-04-03T16:09:29;3.35;;;0.47;;
56233;SDS011;42141;53.240;6.580;2023-04-03T16:11:56;6.22;;;0.70;;
56233;SDS011;42141;53.240;6.580;2023-04-03T16:14:22;0.77;;;0.30;;
56233;SDS011;42141;53.240;6.580;2023-04-03T16:16:48;4.80;;;0.50;;
56233;SDS011;42141;53.240;6.580;2023-04-03T16:19:14;3.00;;;0.93;;
56233;SDS011;42141;53.240;6.580;2023-04-03T16:21:39;3.03;;;0.68;;
56233;SDS011;42141;53.240;6.580;2023-04-03T16:24:05;3.00;;;0.50;;
56233;SDS011;42141;53.240;6.580;2023-04-03T16:26:31;3.58;;;0.70;;
56233;SDS011;42141;53.240;6.580;2023-04-03T16:28:57;2.45;;;0.70;;
56233;SDS011;42141;53.240;6.580;2023-04-03T16:31:24;2.00;;;0.50;;
56233;SDS011;42141;53.240;6.580;2023-04-03T16:33:51;2.78;;;0.85;;
56233;SDS011;42141;53.240;6.580;2023-04-03T16:36:16;4.82;;;0.57;;
56233;SDS011;42141;53.240;6.580;2023-04-03T16:38:42;2.72;;;0.80;;
56233;SDS011;42141;53.240;6.580;2023-04-03T16:41:08;2.75;;;0.55;;
56233;SDS011;42141;53.240;6.580;2023-04-03T16:43:34;2.30;;;0.52;;
56233;SDS011;42141;53.240;6.580;2023-04-03T16:46:01;2.05;;;0.50;;
56233;SDS011;42141;53.240;6.580;2023-04-03T16:48:27;5.93;;;0.95;;
56233;SDS011;42141;53.240;6.580;2023-04-03T16:50:54;5.32;;;0.63;;
56233;SDS011;42141;53.240;6.580;2023-04-03T16:53:20;3.28;;;0.50;;
56233;SDS011;42141;53.240;6.580;2023-04-03T16:55:46;2.67;;;0.82;;
56233;SDS011;42141;53.240;6.580;2023-04-03T16:58:12;2.65;;;0.77;;
56233;SDS011;42141;53.240;6.580;2023-04-03T17:00:39;3.10;;;0.80;;
56233;SDS011;42141;53.240;6.580;2023-04-03T17:03:05;3.40;;;0.90;;
56233;SDS011;42141;53.240;6.580;2023-04-03T17:05:31;5.28;;;2.05;;
56233;SDS011;42141;53.240;6.580;2023-04-03T17:07:57;2.70;;;0.80;;
56233;SDS011;42141;53.240;6.580;2023-04-03T17:10:23;2.42;;;0.60;;
56233;SDS011;42141;53.240;6.580;2023-04-03T17:12:48;1.55;;;0.60;;